Time;durP1;ratioP1;P1;durP2;ratioP2;P2;SDS_P1;SDS_P2;PMS_P1;PMS_P2;Temp;Humidity;BMP_temperature;BMP_pressure;BME280_temperature;BME280_humidity;BME280_pressure;Samples;Min_cycle;Max_cycle;Signal;HPM_P1;HPM_P2
2022/05/27 00:02:15;;;;;;;1.52;1.42;;;17.60;99.90;;;;;;4918742;29;20258;-84
2022/05/27 00:04:45;;;;;;;1.13;1.10;;;17.60;99.90;;;;;;4918946;29;20250;-84
2022/05/27 00:07:14;;;;;;;1.90;1.73;;;17.60;99.90;;;;;;4919309;29;20226;-83
2022/05/27 00:09:42;;;;;;;1.58;1.48;;;17.50;99.90;;;;;;4918690;29;20245;-84
2022/05/27 00:12:10;;;;;;;1.58;1.38;;;17.50;99.90;;;;;;4918277;29;20278;-84
2022/05/27 00:14:39;;;;;;;1.40;1.40;;;17.50;99.90;;;;;;4918350;29;20230;-84
2022/05/27 00:17:07;;;;;;;2.00;1.30;;;17.40;99.90;;;;;;4918461;29;20309;-84
2022/05/27 00:19:36;;;;;;;1.30;1.20;;;17.40;99.90;;;;;;4918400;29;20214;-84
2022/05/27 00:22:06;;;;;;;1.15;1.10;;;17.30;99.90;;;;;;4918031;29;20313;-84
2022/05/27 00:24:36;;;;;;;1.88;1.23;;;17.30;99.90;;;;;;4917851;29;20294;-83
2022/05/27 00:27:05;;;;;;;0.93;0.93;;;17.30;99.90;;;;;;4918406;29;20214;-84
2022/05/27 00:29:33;;;;;;;1.42;1.27;;;17.30;99.90;;;;;;4918224;29;20298;-84
2022/05/27 00:32:22;;;;;;;1.38;1.27;;;17.20;99.90;;;;;;4918015;29;20234;-84
2022/05/27 00:34:50;;;;;;;1.98;1.25;;;17.20;99.90;;;;;;4918193;29;20314;-84
2022/05/27 00:37:21;;;;;;;1.45;1.17;;;17.10;99.90;;;;;;4918574;29;20297;-84
2022/05/27 00:39:49;;;;;;;1.50;1.40;;;17.10;99.90;;;;;;4917981;29;20249;-84
2022/05/27 00:42:18;;;;;;;1.10;1.00;;;17.10;99.90;;;;;;4917887;29;20264;-84
2022/05/27 00:44:46;;;;;;;2.55;1.35;;;17.10;99.90;;;;;;4918207;29;20234;-84
2022/05/27 00:47:18;;;;;;;1.15;1.05;;;17.00;99.90;;;;;;4917944;29;20221;-84
2022/05/27 00:49:50;;;;;;;0.93;0.93;;;17.00;99.90;;;;;;4918195;29;20218;-84
2022/05/27 00:52:23;;;;;;;1.05;1.02;;;17.00;99.90;;;;;;4917543;29;20214;-84
2022/05/27 00:54:52;;;;;;;1.08;1.08;;;16.90;99.90;;;;;;4917608;29;20250;-84
2022/05/27 00:57:29;;;;;;;0.90;0.90;;;16.90;99.90;;;;;;4917848;29;20222;-84
2022/05/27 01:00:00;;;;;;;1.17;1.10;;;16.90;99.90;;;;;;4918045;29;20264;-84
2022/05/27 01:02:29;;;;;;;1.48;1.10;;;16.90;99.90;;;;;;4917311;29;20262;-84
2022/05/27 01:05:01;;;;;;;1.17;1.05;;;16.90;99.90;;;;;;4917604;29;20314;-84
2022/05/27 01:07:31;;;;;;;1.42;1.33;;;16.90;99.90;;;;;;4917769;29;20258;-84
2022/05/27 01:10:01;;;;;;;0.82;0.82;;;16.80;99.90;;;;;;4918137;29;20225;-84
2022/05/27 01:12:46;;;;;;;1.77;1.50;;;16.90;99.90;;;;;;4917525;29;20206;-84
2022/05/27 01:15:24;;;;;;;3.40;1.08;;;16.80;99.90;;;;;;4917231;29;20226;-84
2022/05/27 01:18:04;;;;;;;2.15;1.30;;;16.80;99.90;;;;;;4917196;29;20301;-84
2022/05/27 01:20:42;;;;;;;1.10;1.10;;;16.80;99.90;;;;;;4917141;29;20230;-84
2022/05/27 01:23:47;;;;;;;1.40;1.30;;;16.80;99.90;;;;;;4917079;29;20325;-84
2022/05/27 01:26:37;;;;;;;1.75;1.63;;;16.80;99.90;;;;;;4917633;29;20236;-84
2022/05/27 01:29:46;;;;;;;3.03;1.40;;;16.80;99.90;;;;;;4917521;29;20302;-84
2022/05/27 01:32:20;;;;;;;1.30;1.27;;;16.80;99.90;;;;;;4858642;29;20220;-84
2022/05/27 01:34:57;;;;;;;1.48;1.38;;;16.80;99.90;;;;;;4905779;29;20226;-84
2022/05/27 01:37:32;;;;;;;1.42;1.33;;;16.80;99.90;;;;;;4917434;29;20222;-84
2022/05/27 01:40:09;;;;;;;2.03;1.60;;;16.80;99.90;;;;;;4916912;29;20240;-84
2022/05/27 01:42:45;;;;;;;1.95;1.48;;;16.80;99.90;;;;;;4916795;29;20325;-84
2022/05/27 01:45:19;;;;;;;2.15;1.70;;;16.80;99.90;;;;;;4916777;29;20242;-84
2022/05/27 01:47:54;;;;;;;1.27;1.17;;;16.80;99.90;;;;;;4916998;29;20296;-84
2022/05/27 01:50:27;;;;;;;7.82;1.88;;;16.70;99.90;;;;;;4916944;29;20217;-84
2022/05/27 01:53:01;;;;;;;2.28;1.40;;;16.70;99.90;;;;;;4916789;29;20234;-84
2022/05/27 01:55:35;;;;;;;1.40;1.30;;;16.70;99.90;;;;;;4916419;29;20282;-84
2022/05/27 01:58:07;;;;;;;1.45;1.35;;;16.70;99.90;;;;;;4916858;29;20270;-84
2022/05/27 02:00:37;;;;;;;2.15;1.58;;;16.60;99.90;;;;;;4916927;29;20269;-84
2022/05/27 02:03:11;;;;;;;2.05;1.48;;;16.60;99.90;;;;;;4916785;29;20320;-84
2022/05/27 02:05:45;;;;;;;1.00;1.00;;;16.60;99.90;;;;;;4916814;29;20209;-84
2022/05/27 02:08:17;;;;;;;2.40;1.42;;;16.60;99.90;;;;;;4917118;29;20265;-84
2022/05/27 02:10:51;;;;;;;1.50;1.40;;;16.60;99.90;;;;;;4916837;29;20218;-84
2022/05/27 02:13:24;;;;;;;1.52;1.42;;;16.60;99.90;;;;;;4916631;29;20257;-84
2022/05/27 02:15:55;;;;;;;1.27;1.27;;;16.60;99.90;;;;;;4916909;29;20233;-84
2022/05/27 02:18:30;;;;;;;1.75;1.58;;;16.50;99.90;;;;;;4916949;29;20241;-84
2022/05/27 02:21:04;;;;;;;1.48;1.38;;;16.50;99.90;;;;;;4915894;29;20210;-84
2022/05/27 02:23:40;;;;;;;1.50;1.40;;;16.50;99.90;;;;;;4916238;29;20302;-84
2022/05/27 02:26:14;;;;;;;1.55;1.45;;;16.50;99.90;;;;;;4916608;29;20237;-84
2022/05/27 02:28:46;;;;;;;1.35;1.25;;;16.50;99.90;;;;;;4916542;29;20301;-84
2022/05/27 02:31:19;;;;;;;2.50;1.45;;;16.50;99.90;;;;;;4916196;29;20215;-84
2022/05/27 02:36:49;;;;;;;1.15;1.15;;;16.40;99.90;;;;;;4883870;29;20238;-84
2022/05/27 02:39:18;;;;;;;1.20;1.20;;;16.40;99.90;;;;;;4920124;29;20240;-84
2022/05/27 02:41:57;;;;;;;4.43;1.63;;;16.40;99.90;;;;;;4920105;29;20229;-84
2022/05/27 02:44:32;;;;;;;1.52;1.42;;;16.40;99.90;;;;;;4920200;29;20257;-84
2022/05/27 02:47:06;;;;;;;1.48;1.33;;;16.40;99.90;;;;;;4920079;29;20234;-84
2022/05/27 02:49:43;;;;;;;1.55;1.27;;;16.40;99.90;;;;;;4920012;29;20302;-84
2022/05/27 02:52:19;;;;;;;1.60;1.50;;;16.40;99.90;;;;;;4919799;29;20206;-83
2022/05/27 02:54:53;;;;;;;1.38;1.33;;;16.30;99.90;;;;;;4919936;29;20252;-83
2022/05/27 02:57:30;;;;;;;1.40;1.30;;;16.30;99.90;;;;;;4920096;29;20221;-84
2022/05/27 03:00:02;;;;;;;2.30;1.63;;;16.30;99.90;;;;;;4919936;29;20218;-84
2022/05/27 03:02:31;;;;;;;1.73;1.30;;;16.20;99.90;;;;;;4919916;29;20210;-84
2022/05/27 03:05:02;;;;;;;1.80;1.13;;;16.30;99.90;;;;;;4919196;29;20235;-84
2022/05/27 03:07:38;;;;;;;3.55;1.38;;;16.30;99.90;;;;;;4919611;29;20210;-84
2022/05/27 03:10:30;;;;;;;1.38;1.33;;;16.20;99.90;;;;;;4919968;29;20301;-83
2022/05/27 03:13:18;;;;;;;1.25;1.25;;;16.20;99.90;;;;;;4916502;29;20313;-84
2022/05/27 03:16:04;;;;;;;1.25;1.15;;;16.20;99.90;;;;;;4919253;29;20274;-83
2022/05/27 03:18:47;;;;;;;1.50;1.40;;;16.20;99.90;;;;;;4919802;29;20214;-84
2022/05/27 03:21:23;;;;;;;1.95;1.58;;;16.20;99.90;;;;;;4919365;29;20320;-83
2022/05/27 03:24:04;;;;;;;2.38;1.20;;;16.20;99.90;;;;;;4919024;29;20230;-83
2022/05/27 03:26:39;;;;;;;1.23;0.95;;;16.20;99.90;;;;;;4919428;29;20206;-84
2022/05/27 03:29:16;;;;;;;1.83;1.27;;;16.20;99.90;;;;;;4919140;29;20210;-84
2022/05/27 03:31:53;;;;;;;1.40;1.30;;;16.20;99.90;;;;;;4919228;29;20305;-84
2022/05/27 03:34:28;;;;;;;1.48;1.38;;;16.20;99.90;;;;;;4919463;29;20229;-84
2022/05/27 03:37:03;;;;;;;1.23;1.15;;;16.20;99.90;;;;;;4919411;29;20230;-84
2022/05/27 03:39:39;;;;;;;1.27;1.23;;;16.30;99.90;;;;;;4918995;29;20236;-84
2022/05/27 03:42:09;;;;;;;2.22;1.30;;;16.20;99.90;;;;;;4919076;29;20226;-84
2022/05/27 03:44:38;;;;;;;1.50;1.17;;;16.20;99.90;;;;;;4918295;29;20239;-84
2022/05/27 03:47:07;;;;;;;1.20;1.13;;;16.30;99.90;;;;;;4919204;29;20262;-83
2022/05/27 03:49:35;;;;;;;1.48;1.30;;;16.40;99.90;;;;;;4919228;29;20229;-84
2022/05/27 03:52:09;;;;;;;2.38;1.23;;;16.40;99.90;;;;;;4918757;29;20277;-84
2022/05/27 03:54:38;;;;;;;1.42;1.33;;;16.40;99.90;;;;;;4918881;29;20254;-84
2022/05/27 03:57:06;;;;;;;1.10;1.10;;;16.50;99.90;;;;;;4918557;29;20214;-84
2022/05/27 03:59:35;;;;;;;1.45;1.17;;;16.50;99.90;;;;;;4919022;29;20239;-84
2022/05/27 04:02:04;;;;;;;1.30;1.20;;;16.50;99.90;;;;;;4918984;29;20249;-83
2022/05/27 04:04:32;;;;;;;1.13;1.13;;;16.60;99.90;;;;;;4918466;29;20322;-84
2022/05/27 04:07:01;;;;;;;1.00;1.00;;;16.60;99.90;;;;;;4918651;29;20218;-83
2022/05/27 04:09:32;;;;;;;1.10;1.00;;;16.70;99.90;;;;;;4918493;29;20214;-84
2022/05/27 04:12:01;;;;;;;1.33;1.23;;;16.70;99.90;;;;;;4918303;29;20241;-84
2022/05/27 04:14:31;;;;;;;1.10;1.05;;;16.80;99.90;;;;;;4918283;29;20231;-83
2022/05/27 04:19:42;;;;;;;1.10;1.10;;;16.90;99.90;;;;;;4917682;29;20249;-84
2022/05/27 04:22:11;;;;;;;1.42;1.20;;;16.90;99.90;;;;;;4918083;29;20214;-84
2022/05/27 04:24:40;;;;;;;3.63;1.23;;;17.00;99.90;;;;;;4917965;29;20234;-84
2022/05/27 04:27:10;;;;;;;1.48;1.30;;;16.90;99.90;;;;;;4918536;29;20206;-83
2022/05/27 04:29:40;;;;;;;0.95;0.95;;;17.00;99.90;;;;;;4918152;29;20270;-84
2022/05/27 04:32:10;;;;;;;2.13;1.10;;;17.00;99.90;;;;;;4918073;29;20301;-83
2022/05/27 04:34:38;;;;;;;1.55;1.35;;;17.10;99.90;;;;;;4917738;29;20249;-83
2022/05/27 04:37:06;;;;;;;1.40;1.30;;;17.10;99.90;;;;;;4918406;29;20237;-84
2022/05/27 04:39:35;;;;;;;1.15;1.13;;;17.10;99.90;;;;;;4918314;29;20233;-84
2022/05/27 04:42:06;;;;;;;1.40;1.30;;;17.20;99.90;;;;;;4918082;29;20290;-84
2022/05/27 04:44:35;;;;;;;1.20;1.08;;;17.20;99.90;;;;;;4917875;29;20219;-84
2022/05/27 04:47:04;;;;;;;1.35;1.25;;;17.30;99.90;;;;;;4917789;29;20286;-84
2022/05/27 04:52:18;;;;;;;1.02;1.02;;;17.40;99.90;;;;;;4917697;29;20226;-83
2022/05/27 04:54:47;;;;;;;1.83;1.70;;;17.40;99.90;;;;;;4917961;29;20223;-84
2022/05/27 04:57:20;;;;;;;1.38;1.30;;;17.40;99.90;;;;;;4916967;29;20221;-84
2022/05/27 04:59:49;;;;;;;1.55;1.30;;;17.50;99.90;;;;;;4917719;29;20218;-84
2022/05/27 05:02:20;;;;;;;2.88;1.50;;;17.50;99.90;;;;;;4917379;29;20215;-84
2022/05/27 05:04:49;;;;;;;3.33;1.52;;;17.50;99.90;;;;;;4917599;29;20383;-83
2022/05/27 05:07:19;;;;;;;1.00;1.00;;;17.50;99.90;;;;;;4917952;29;20262;-84
2022/05/27 05:09:48;;;;;;;1.33;1.23;;;17.60;99.90;;;;;;4917641;29;20206;-83
2022/05/27 05:12:22;;;;;;;1.02;1.02;;;17.60;99.90;;;;;;4917017;29;20253;-84
2022/05/27 05:14:51;;;;;;;3.70;1.30;;;17.60;99.90;;;;;;4916971;29;20253;-83
2022/05/27 05:17:21;;;;;;;2.25;1.30;;;17.60;99.90;;;;;;4917366;29;20225;-84
2022/05/27 05:19:53;;;;;;;1.70;1.60;;;17.60;99.90;;;;;;4917098;29;20210;-84
2022/05/27 05:22:22;;;;;;;1.38;1.27;;;17.50;99.90;;;;;;4917398;29;20278;-83
2022/05/27 05:24:59;;;;;;;1.15;1.15;;;17.50;99.90;;;;;;4917400;29;20286;-83
2022/05/27 05:27:30;;;;;;;1.10;1.10;;;17.50;99.90;;;;;;4917402;29;20218;-83
2022/05/27 05:30:02;;;;;;;1.50;1.40;;;17.50;99.90;;;;;;4917079;29;20270;-84
2022/05/27 05:32:32;;;;;;;1.10;1.10;;;17.50;99.90;;;;;;4917003;29;20214;-84
2022/05/27 05:35:02;;;;;;;3.22;1.40;;;17.60;99.90;;;;;;4917476;29;20230;-83
2022/05/27 05:37:31;;;;;;;1.58;1.48;;;17.70;99.90;;;;;;4917138;29;20211;-83
2022/05/27 05:40:07;;;;;;;1.98;1.38;;;17.70;99.90;;;;;;4917003;29;20269;-83
2022/05/27 05:42:38;;;;;;;1.60;1.50;;;17.80;99.90;;;;;;4916859;29;20290;-83
2022/05/27 05:45:08;;;;;;;2.25;1.35;;;17.80;99.90;;;;;;4916998;29;20231;-83
2022/05/27 05:47:36;;;;;;;1.30;1.20;;;17.90;99.90;;;;;;4916980;29;20257;-83
2022/05/27 05:50:06;;;;;;;1.02;1.02;;;18.00;99.90;;;;;;4917004;29;20214;-84
2022/05/27 05:52:34;;;;;;;2.17;1.17;;;18.10;99.90;;;;;;4916553;29;20206;-84
2022/05/27 05:55:03;;;;;;;1.27;1.17;;;18.10;99.90;;;;;;4916640;29;20317;-84
2022/05/27 05:57:31;;;;;;;2.10;1.90;;;18.20;99.90;;;;;;4916506;29;20249;-83
2022/05/27 06:00:01;;;;;;;1.42;1.25;;;18.30;99.90;;;;;;4916753;29;20225;-84
2022/05/27 06:02:30;;;;;;;1.25;1.17;;;18.40;99.90;;;;;;4916662;29;20298;-84
2022/05/27 06:04:58;;;;;;;1.67;1.58;;;18.50;99.90;;;;;;4916541;29;20306;-84
2022/05/27 06:07:30;;;;;;;4.30;1.38;;;18.60;99.90;;;;;;4916601;29;20297;-84
2022/05/27 06:09:58;;;;;;;1.30;1.20;;;18.60;99.90;;;;;;4916874;29;20257;-84
2022/05/27 06:12:28;;;;;;;1.60;1.50;;;18.70;99.90;;;;;;4916672;29;20218;-84
2022/05/27 06:14:56;;;;;;;1.08;1.08;;;18.80;99.90;;;;;;4916726;29;20226;-83
2022/05/27 06:17:27;;;;;;;1.40;1.30;;;18.90;99.90;;;;;;4916600;29;20218;-84
2022/05/27 06:19:55;;;;;;;1.10;1.10;;;19.00;99.90;;;;;;4916640;29;20302;-83
2022/05/27 06:22:24;;;;;;;2.08;1.40;;;19.00;99.90;;;;;;4916337;29;20248;-83
2022/05/27 06:24:52;;;;;;;1.20;1.02;;;19.10;99.90;;;;;;4916370;29;20325;-84
2022/05/27 06:27:21;;;;;;;1.15;1.05;;;19.10;99.90;;;;;;4916596;29;20210;-83
2022/05/27 06:35:22;;;;;;;1.33;1.15;;;19.30;99.90;;;;;;4916068;29;20278;-83
2022/05/27 06:37:50;;;;;;;1.05;1.05;;;19.40;99.90;;;;;;4916410;29;20214;-84
2022/05/27 06:40:19;;;;;;;0.77;0.77;;;19.50;99.90;;;;;;4916625;29;20237;-84
2022/05/27 06:42:47;;;;;;;1.60;1.50;;;19.60;99.90;;;;;;4916298;29;20225;-84
2022/05/27 06:45:15;;;;;;;1.42;1.10;;;19.70;99.90;;;;;;4916051;29;20230;-84
2022/05/27 06:47:45;;;;;;;1.30;1.00;;;19.80;99.90;;;;;;4916248;29;20210;-84
2022/05/27 06:50:14;;;;;;;0.90;0.90;;;19.90;99.90;;;;;;4916233;29;20237;-83
2022/05/27 06:52:42;;;;;;;1.33;1.23;;;20.00;99.90;;;;;;4916328;29;20214;-83
2022/05/27 06:55:12;;;;;;;1.02;1.02;;;20.00;99.90;;;;;;4916367;29;20284;-84
2022/05/27 06:57:41;;;;;;;1.63;0.90;;;20.10;99.90;;;;;;4915830;29;20306;-83
2022/05/27 07:00:12;;;;;;;1.30;1.20;;;20.00;99.90;;;;;;4915919;29;20301;-84
2022/05/27 07:02:40;;;;;;;1.30;1.20;;;20.20;99.90;;;;;;4916426;29;20298;-84
2022/05/27 07:05:11;;;;;;;1.50;1.40;;;20.40;99.90;;;;;;4915975;29;20238;-84
2022/05/27 07:07:39;;;;;;;1.80;1.52;;;20.50;99.90;;;;;;4916165;29;20283;-84
2022/05/27 07:10:08;;;;;;;1.58;1.48;;;20.60;99.90;;;;;;4915584;29;20207;-84
2022/05/27 07:12:39;;;;;;;1.23;0.98;;;20.90;99.90;;;;;;4915708;29;20210;-84
2022/05/27 07:15:08;;;;;;;1.83;1.50;;;21.00;99.90;;;;;;4915932;29;20241;-84
2022/05/27 07:17:36;;;;;;;2.05;1.15;;;21.30;99.90;;;;;;4915965;29;20222;-84
2022/05/27 07:20:06;;;;;;;1.25;1.15;;;21.50;99.90;;;;;;4916714;29;20297;-84
2022/05/27 07:22:36;;;;;;;1.50;1.40;;;21.90;99.90;;;;;;4919507;29;20217;-84
2022/05/27 07:25:04;;;;;;;1.00;1.00;;;22.60;99.90;;;;;;4919483;29;20232;-84
2022/05/27 07:27:33;;;;;;;1.48;0.90;;;23.40;99.90;;;;;;4919083;29;20282;-84
2022/05/27 07:30:01;;;;;;;1.27;1.15;;;23.90;99.90;;;;;;4919353;29;20289;-84
2022/05/27 07:32:33;;;;;;;1.25;1.15;;;24.10;99.90;;;;;;4919177;29;20209;-85
2022/05/27 07:35:01;;;;;;;1.20;1.10;;;24.80;99.90;;;;;;4919386;29;20257;-84
2022/05/27 07:37:30;;;;;;;7.43;1.17;;;25.40;98.50;;;;;;4918859;29;20211;-84
2022/05/27 07:39:59;;;;;;;1.38;1.10;;;25.70;96.80;;;;;;4919211;29;20207;-84
2022/05/27 07:42:28;;;;;;;0.93;0.93;;;26.30;94.70;;;;;;4919094;29;20273;-84
2022/05/27 07:44:56;;;;;;;1.00;1.00;;;25.90;93.60;;;;;;4918927;29;20287;-84
2022/05/27 07:47:25;;;;;;;1.15;1.05;;;25.50;93.30;;;;;;4918830;29;20231;-84
2022/05/27 07:49:54;;;;;;;1.17;1.08;;;25.00;93.30;;;;;;4918706;29;20214;-83
2022/05/27 07:52:22;;;;;;;1.00;1.00;;;25.20;93.10;;;;;;4918932;29;20212;-84
2022/05/27 07:54:51;;;;;;;0.90;0.90;;;25.10;93.30;;;;;;4918854;29;20235;-84
2022/05/27 07:57:28;;;;;;;1.13;1.13;;;25.60;92.30;;;;;;4918809;29;20304;-83
2022/05/27 08:00:01;;;;;;;1.20;1.10;;;26.10;91.60;;;;;;4918847;29;20244;-84
2022/05/27 08:02:30;;;;;;;1.17;1.10;;;26.50;91.40;;;;;;4918523;29;20270;-85
2022/05/27 08:04:58;;;;;;;2.28;1.27;;;26.40;91.10;;;;;;4918542;29;20320;-84
2022/05/27 08:07:28;;;;;;;1.35;1.25;;;27.10;90.40;;;;;;4918579;29;20237;-84
2022/05/27 08:09:56;;;;;;;1.05;1.05;;;27.20;88.40;;;;;;4918606;29;20283;-84
2022/05/27 08:12:26;;;;;;;1.10;1.00;;;27.40;89.00;;;;;;4918210;29;20258;-84
2022/05/27 08:14:54;;;;;;;1.08;1.05;;;27.40;86.30;;;;;;4918517;29;20234;-84
2022/05/27 08:17:24;;;;;;;1.13;1.10;;;27.40;86.50;;;;;;4918560;29;20214;-84
2022/05/27 08:19:53;;;;;;;1.88;1.13;;;27.00;85.80;;;;;;4918424;29;20239;-84
2022/05/27 08:22:21;;;;;;;1.27;1.17;;;26.70;86.10;;;;;;4918405;29;20262;-84
2022/05/27 08:24:49;;;;;;;1.40;1.10;;;26.80;86.10;;;;;;4918319;29;20325;-85
2022/05/27 08:27:18;;;;;;;1.30;1.20;;;27.10;84.00;;;;;;4918211;29;20286;-84
2022/05/27 08:29:48;;;;;;;1.17;1.10;;;27.60;84.70;;;;;;4918640;29;20236;-84
2022/05/27 08:32:16;;;;;;;2.78;1.30;;;27.60;82.30;;;;;;4917012;29;20202;-84
2022/05/27 08:40:30;;;;;;;1.40;1.30;;;27.00;82.70;;;;;;4918223;29;20297;-85
2022/05/27 08:43:06;;;;;;;2.17;1.25;;;26.40;83.30;;;;;;4918127;29;20241;-84
2022/05/27 08:45:43;;;;;;;1.23;1.13;;;26.20;84.00;;;;;;4918094;29;20214;-84
2022/05/27 08:48:12;;;;;;;0.95;0.95;;;26.50;84.50;;;;;;4917983;29;20237;-84
2022/05/27 08:50:46;;;;;;;3.65;1.42;;;26.50;84.10;;;;;;4917673;29;20282;-84
2022/05/27 08:53:22;;;;;;;3.25;1.10;;;26.90;82.60;;;;;;4917978;29;20235;-84
2022/05/27 09:01:38;;;;;;;1.20;1.10;;;26.80;82.70;;;;;;4912181;29;20242;-84
2022/05/27 09:04:21;;;;;;;0.90;0.90;;;27.40;82.00;;;;;;4917703;29;20231;-84
2022/05/27 09:06:52;;;;;;;1.40;1.30;;;27.60;82.50;;;;;;4917561;29;20222;-84
2022/05/27 09:09:23;;;;;;;0.90;0.90;;;27.80;79.90;;;;;;4917905;29;20210;-84
2022/05/27 09:12:10;;;;;;;1.27;1.17;;;27.80;80.00;;;;;;4917701;29;20317;-84
2022/05/27 09:14:46;;;;;;;0.95;0.95;;;28.00;79.70;;;;;;4917380;29;20246;-84
2022/05/27 09:17:24;;;;;;;1.08;1.02;;;27.50;79.00;;;;;;4917468;29;20241;-84
2022/05/27 09:20:01;;;;;;;1.30;1.20;;;27.40;79.20;;;;;;4917550;29;20215;-84
2022/05/27 09:22:39;;;;;;;2.15;1.50;;;27.70;79.30;;;;;;4917296;29;20297;-84
2022/05/27 09:25:19;;;;;;;1.48;1.23;;;27.50;80.20;;;;;;4917337;29;20318;-84
2022/05/27 09:27:58;;;;;;;1.25;1.15;;;27.90;78.40;;;;;;4916817;29;20318;-84
2022/05/27 09:30:27;;;;;;;1.33;1.23;;;27.40;77.70;;;;;;4917181;29;20274;-84
2022/05/27 09:33:01;;;;;;;3.60;1.73;;;27.40;78.60;;;;;;4917224;29;20218;-84
2022/05/27 09:35:33;;;;;;;0.82;0.82;;;27.00;78.50;;;;;;4917333;29;20207;-84
2022/05/27 09:38:15;;;;;;;1.00;1.00;;;26.90;79.00;;;;;;4917268;29;20206;-84
2022/05/27 09:40:48;;;;;;;6.93;1.33;;;26.70;78.60;;;;;;4916996;29;20318;-85
2022/05/27 09:43:22;;;;;;;1.27;1.20;;;26.50;79.50;;;;;;4916321;29;20261;-84
2022/05/27 09:45:56;;;;;;;1.58;1.48;;;26.50;79.60;;;;;;4917091;29;20269;-84
2022/05/27 09:48:27;;;;;;;1.30;1.20;;;26.70;79.00;;;;;;4916585;29;20223;-84
2022/05/27 09:50:59;;;;;;;1.90;1.00;;;26.80;78.80;;;;;;4917319;29;20237;-85
2022/05/27 09:53:34;;;;;;;1.05;1.00;;;26.90;78.20;;;;;;4916820;29;20261;-84
2022/05/27 09:56:05;;;;;;;1.50;1.23;;;26.50;79.30;;;;;;4916875;29;20212;-84
2022/05/27 09:58:37;;;;;;;2.28;1.30;;;26.60;79.50;;;;;;4916460;29;20290;-84
2022/05/27 10:01:21;;;;;;;3.22;1.48;;;27.40;79.30;;;;;;4916519;29;20230;-84
2022/05/27 10:04:02;;;;;;;1.42;1.20;;;27.60;77.80;;;;;;4917021;29;20237;-84
2022/05/27 10:06:34;;;;;;;1.50;1.23;;;28.20;76.50;;;;;;4916808;29;20206;-84
2022/05/27 10:09:05;;;;;;;1.48;1.38;;;28.70;75.10;;;;;;4916826;29;20217;-84
2022/05/27 10:11:35;;;;;;;2.08;1.15;;;28.30;74.80;;;;;;4916307;29;20206;-84
2022/05/27 10:14:20;;;;;;;1.65;1.10;;;27.50;74.90;;;;;;4916715;29;20269;-84
2022/05/27 10:17:09;;;;;;;1.55;0.98;;;27.20;75.70;;;;;;4916764;29;20210;-84
2022/05/27 10:19:47;;;;;;;4.47;1.08;;;26.80;76.10;;;;;;4916652;29;20207;-85
2022/05/27 10:22:26;;;;;;;4.28;1.00;;;26.40;76.50;;;;;;4916161;29;20206;-84
2022/05/27 10:25:01;;;;;;;1.20;1.13;;;26.20;77.40;;;;;;4916762;29;20314;-83
2022/05/27 10:27:35;;;;;;;1.38;1.27;;;26.10;77.90;;;;;;4916409;29;20278;-84
2022/05/27 10:30:09;;;;;;;1.55;1.45;;;26.60;77.30;;;;;;4916592;29;20233;-84
2022/05/27 10:32:40;;;;;;;3.60;1.30;;;27.10;76.80;;;;;;4916735;29;20238;-85
2022/05/27 10:35:32;;;;;;;1.17;1.13;;;27.40;76.40;;;;;;4916465;29;20241;-85
2022/05/27 10:38:12;;;;;;;2.05;1.30;;;27.80;75.30;;;;;;4916518;29;20202;-85
2022/05/27 10:40:47;;;;;;;1.20;1.20;;;27.40;75.00;;;;;;4916340;29;20198;-85
2022/05/27 10:43:31;;;;;;;2.28;1.08;;;26.70;75.00;;;;;;4916341;29;20240;-85
2022/05/27 10:46:04;;;;;;;1.30;1.17;;;26.90;76.00;;;;;;4916815;29;20214;-84
2022/05/27 10:48:56;;;;;;;1.20;1.10;;;27.20;75.80;;;;;;4916207;29;20306;-85
2022/05/27 10:51:41;;;;;;;1.63;1.40;;;27.40;76.00;;;;;;4916037;29;20298;-85
2022/05/27 10:54:27;;;;;;;2.20;1.33;;;26.90;75.60;;;;;;4916017;29;20226;-85
2022/05/27 11:03:36;;;;;;;1.58;1.38;;;27.60;75.30;;;;;;4919871;29;20274;-84
2022/05/27 11:06:22;;;;;;;1.13;1.10;;;28.10;75.10;;;;;;4891262;29;20214;-84
2022/05/27 11:09:06;;;;;;;1.20;1.10;;;28.30;74.50;;;;;;4919453;29;20297;-85
2022/05/27 11:11:42;;;;;;;1.30;1.20;;;28.30;74.20;;;;;;4919193;29;20287;-85
2022/05/27 11:17:25;;;;;;;2.42;1.35;;;27.50;75.00;;;;;;4919745;29;20245;-85
2022/05/27 11:20:11;;;;;;;1.35;1.25;;;27.80;75.50;;;;;;4919544;29;20215;-85
2022/05/27 11:22:47;;;;;;;1.70;1.40;;;27.90;74.50;;;;;;4919633;29;20278;-85
2022/05/27 11:25:31;;;;;;;1.02;1.02;;;27.40;75.60;;;;;;4919355;29;20206;-85
2022/05/27 11:28:26;;;;;;;1.65;1.55;;;27.30;77.20;;;;;;4919081;29;20321;-85
2022/05/27 11:31:06;;;;;;;1.85;1.50;;;27.40;76.70;;;;;;4917164;29;20214;-85
2022/05/27 11:33:43;;;;;;;1.30;1.20;;;27.40;76.60;;;;;;4919213;29;20226;-85
2022/05/27 11:36:40;;;;;;;1.00;1.00;;;27.90;76.70;;;;;;4919193;29;20206;-85
2022/05/27 11:39:50;;;;;;;1.15;1.05;;;27.70;75.70;;;;;;4919385;29;20203;-86
2022/05/27 11:42:44;;;;;;;3.95;1.55;;;27.70;75.90;;;;;;4892153;29;20206;-85
2022/05/27 11:45:21;;;;;;;1.25;1.15;;;27.40;76.40;;;;;;4918894;29;20231;-85
2022/05/27 11:48:03;;;;;;;1.42;1.30;;;27.00;76.20;;;;;;4919281;29;20234;-85
2022/05/27 11:51:09;;;;;;;1.02;1.00;;;27.00;77.00;;;;;;4918972;29;20206;-85
2022/05/27 11:53:54;;;;;;;1.63;1.52;;;27.40;76.30;;;;;;4918824;29;20234;-85
2022/05/27 11:56:38;;;;;;;2.45;1.40;;;27.40;75.40;;;;;;4919131;29;20211;-85
2022/05/27 11:59:19;;;;;;;1.58;1.45;;;27.50;76.20;;;;;;4918646;29;20198;-86
2022/05/27 12:01:51;;;;;;;1.20;1.10;;;27.40;75.60;;;;;;4918464;29;20211;-85
2022/05/27 12:04:31;;;;;;;2.55;1.73;;;26.80;76.20;;;;;;4919242;29;20237;-85
2022/05/27 12:07:14;;;;;;;1.52;1.10;;;27.30;76.70;;;;;;4918278;29;20262;-85
2022/05/27 12:09:50;;;;;;;1.58;1.48;;;27.70;75.60;;;;;;4918224;29;20226;-86
2022/05/27 12:12:23;;;;;;;1.58;1.48;;;27.70;75.30;;;;;;4918718;29;20224;-85
2022/05/27 12:15:01;;;;;;;1.42;1.30;;;27.90;75.00;;;;;;4918386;29;20234;-85
2022/05/27 12:17:38;;;;;;;1.13;0.73;;;28.30;75.50;;;;;;4918444;29;20210;-85
2022/05/27 12:20:15;;;;;;;6.05;1.23;;;27.50;73.90;;;;;;4918423;29;20217;-85
2022/05/27 12:22:46;;;;;;;1.58;1.15;;;27.40;74.60;;;;;;4918529;29;20238;-85
2022/05/27 12:25:19;;;;;;;1.10;1.10;;;26.80;75.30;;;;;;4918310;29;20211;-85
2022/05/27 12:27:49;;;;;;;1.92;1.30;;;26.90;76.00;;;;;;4918268;29;20223;-85
2022/05/27 12:30:25;;;;;;;1.00;1.00;;;26.70;75.40;;;;;;4918029;29;20273;-86
2022/05/27 12:32:57;;;;;;;3.80;1.35;;;26.80;76.00;;;;;;4918179;29;20214;-85
2022/05/27 12:35:42;;;;;;;1.95;1.75;;;27.10;76.00;;;;;;4918316;29;20239;-85
2022/05/27 12:38:13;;;;;;;1.88;1.20;;;27.30;75.60;;;;;;4918136;29;20216;-85
2022/05/27 12:40:49;;;;;;;1.15;1.08;;;27.20;74.80;;;;;;4917777;29;20269;-85
2022/05/27 12:43:30;;;;;;;1.17;0.80;;;26.90;73.70;;;;;;4918003;29;20226;-85
2022/05/27 12:46:24;;;;;;;1.77;1.67;;;26.90;74.90;;;;;;4918021;29;20226;-85
2022/05/27 12:48:55;;;;;;;3.03;1.60;;;26.60;75.60;;;;;;4917619;29;20223;-85
2022/05/27 12:51:40;;;;;;;3.78;1.15;;;26.70;76.50;;;;;;4918008;29;20250;-85
2022/05/27 12:54:08;;;;;;;1.30;1.20;;;26.90;76.20;;;;;;4917750;29;20233;-85
2022/05/27 13:02:50;;;;;;;13.13;1.23;;;26.40;75.50;;;;;;4896143;29;20289;-86
2022/05/27 13:05:21;;;;;;;0.98;0.98;;;26.50;76.10;;;;;;4917870;29;20214;-86
2022/05/27 13:07:54;;;;;;;1.40;1.30;;;26.90;74.90;;;;;;4917441;29;20214;-85
2022/05/27 13:10:47;;;;;;;0.88;0.88;;;26.80;75.20;;;;;;4917342;29;20211;-85
2022/05/27 13:13:22;;;;;;;1.05;1.05;;;26.80;75.30;;;;;;4917922;29;20246;-85
2022/05/27 13:16:03;;;;;;;1.15;1.10;;;26.50;74.60;;;;;;4917049;29;20210;-85
2022/05/27 13:18:52;;;;;;;0.85;0.85;;;26.50;75.40;;;;;;4916925;29;20206;-85
2022/05/27 13:21:33;;;;;;;1.33;1.10;;;26.40;75.70;;;;;;4916735;29;20258;-85
2022/05/27 13:24:06;;;;;;;2.25;1.30;;;26.60;75.80;;;;;;4917245;29;20237;-85
2022/05/27 13:26:51;;;;;;;1.48;1.27;;;26.60;76.30;;;;;;4917419;29;20230;-85
2022/05/27 13:29:28;;;;;;;1.38;1.27;;;26.60;76.70;;;;;;4917130;29;20226;-85
2022/05/27 13:31:59;;;;;;;1.02;1.02;;;26.80;76.40;;;;;;4916887;29;20221;-85
2022/05/27 13:34:40;;;;;;;0.93;0.90;;;26.70;75.90;;;;;;4917227;29;20290;-85
2022/05/27 13:37:18;;;;;;;1.30;1.20;;;26.90;75.40;;;;;;4917259;29;20298;-85
2022/05/27 13:39:53;;;;;;;1.30;1.17;;;26.70;76.30;;;;;;4917000;29;20206;-85
2022/05/27 13:42:32;;;;;;;1.25;1.13;;;26.50;76.40;;;;;;4916862;29;20301;-85
2022/05/27 13:45:08;;;;;;;2.55;1.10;;;26.80;76.50;;;;;;4917164;29;20245;-85
2022/05/27 13:47:55;;;;;;;1.05;0.98;;;26.80;74.30;;;;;;4916957;29;20217;-85
2022/05/27 13:50:35;;;;;;;3.28;1.10;;;26.60;75.30;;;;;;4916063;29;20236;-85
2022/05/27 13:53:21;;;;;;;1.13;1.10;;;26.90;75.20;;;;;;4916203;29;20206;-85
2022/05/27 13:55:54;;;;;;;1.35;1.17;;;26.70;75.30;;;;;;4916761;29;20299;-86
2022/05/27 13:58:26;;;;;;;1.42;1.10;;;26.60;75.30;;;;;;4916414;29;20230;-86
2022/05/27 14:00:59;;;;;;;1.30;1.13;;;26.50;75.60;;;;;;4916812;29;20217;-85
2022/05/27 14:03:34;;;;;;;1.30;1.20;;;26.50;75.80;;;;;;4916482;29;20286;-85
2022/05/27 14:06:05;;;;;;;2.38;1.13;;;26.40;76.20;;;;;;4916345;29;20229;-85